Latest Weather Observations for Kilmore Gap

IDV60801

Issued at 3:42 pm EDT Monday 18 November 2019 (issued every 10 minutes, with the page automatically refreshed every 10 minutes)

About weather observations | Map of weather stations | Latest weather observations for VIC | Other Formats
Station Details ID: 088162 Name: KILMORE GAP Lat: -37.38 Lon: 144.97 Height: 527.8 m
Data from the previous 72 hours. | See also: Recent months at Kilmore Gap
Date/Time
EDT
Temp
°C
App
Temp
°C
Dew
Point
°C
Rel
Hum
%
Delta-T
°C
Wind Press
QNH
hPa
Press
MSL
hPa
Rain since
9am
mm
Dir  Spd
km/h
Gust
km/h
Spd
kts
Gust
kts
18/03:30pm 24.0 18.9 3.9 27 10.1 NW 20 30 11 16 1014.8 1013.8 0.0
18/03:00pm 23.3 17.5 6.1 33 9.0 NW 26 39 14 21 1015.0 1014.0 0.0
18/02:30pm 23.3 18.3 6.6 34 8.8 NW 22 35 12 19 1015.1 1014.1 0.0
18/02:00pm 22.8 18.2 6.6 35 8.5 NW 20 30 11 16 1015.5 1014.6 0.0
18/01:30pm 22.2 17.6 6.4 36 8.2 NW 20 32 11 17 1015.8 1014.9 0.0
18/01:00pm 21.3 16.6 7.9 42 7.1 NW 22 32 12 17 1016.0 1015.1 0.0
18/12:30pm 21.5 16.3 5.4 35 8.2 NW 22 37 12 20 1016.2 1015.3 0.0
18/12:00pm 20.0 15.2 5.6 39 7.3 NW 20 32 11 17 1016.6 1015.6 0.0
18/11:30am 19.6 13.6 7.0 44 6.5 NNW 28 35 15 19 1016.8 1015.8 0.0
18/11:00am 17.3 11.5 6.2 48 5.6 NNW 26 35 14 19 1017.0 1016.1 0.0
18/10:30am 16.1 10.4 6.5 53 4.8 NNW 26 32 14 17 1017.3 1016.4 0.0
18/10:00am 14.9 8.9 7.0 59 4.0 NNW 28 35 15 19 1017.4 1016.5 0.0
18/09:30am 13.6 8.7 6.7 63 3.4 NNW 22 28 12 15 1017.7 1016.8 0.0
18/09:00am 12.2 6.6 5.6 64 3.2 N 24 32 13 17 1017.6 1016.7 0.0
18/08:30am 11.7 7.0 6.0 68 2.7 N 20 24 11 13 1018.0 1017.1 0.0
18/08:00am 10.2 5.7 6.0 75 2.0 N 19 24 10 13 1017.9 1017.0 0.0
18/07:30am 9.2 5.7 5.6 78 1.7 N 13 17 7 9 1018.1 1017.2 0.0
18/07:00am 8.3 5.1 4.9 79 1.6 NNW 11 13 6 7 1017.9 1017.0 0.0
18/06:30am 8.6 6.0 4.4 75 1.9 W 7 11 4 6 1018.5 1017.5 0.0
18/06:00am 8.0 4.3 4.4 78 1.6 W 13 13 7 7 1018.1 1017.2 0.0
18/05:30am 8.0 5.6 4.2 77 1.7 WNW 6 7 3 4 1017.8 1016.9 0.0
18/05:00am 8.2 5.9 4.6 78 1.6 WNW 6 9 3 5 1017.6 1016.7 0.0
18/04:30am 8.7 7.1 4.7 76 1.8 WNW 2 7 1 4 1017.7 1016.8 0.0
18/04:00am 8.7 7.1 4.7 76 1.8 W 2 6 1 3 1017.7 1016.8 0.0
18/03:30am 8.6 7.6 5.4 80 1.5 CALM 0 0 0 0 1017.7 1016.8 0.0
18/03:00am 7.9 5.6 4.7 80 1.5 NE 6 7 3 4 1017.8 1016.9 0.0
18/02:30am 7.0 4.2 5.0 87 0.9 ENE 9 11 5 6 1017.9 1017.0 0.0
18/02:00am 6.9 4.0 4.9 87 0.9 SSE 9 9 5 5 1018.5 1017.5 0.0
18/01:30am 6.8 3.9 4.6 86 1.0 SSE 9 11 5 6 1018.9 1018.0 0.0
18/01:00am 6.8 3.9 4.6 86 1.0 SSW 9 13 5 7 1019.4 1018.5 0.0
18/12:30am 6.9 3.2 4.6 85 1.0 SSW 13 17 7 9 1019.8 1018.9 0.0
18/12:00am 6.8 2.4 4.6 86 1.0 SW 17 20 9 11 1020.0 1019.1 0.0
 
Date/Time
EDT
Temp
°C
App
Temp
°C
Dew
Point
°C
Rel
Hum
%
Delta-T
°C
Wind Press
QNH
hPa
Press
MSL
hPa
Rain since
9am
mm
Dir  Spd
km/h
Gust
km/h
Spd
kts
Gust
kts
17/11:30pm 6.7 2.6 4.4 85 1.0 SW 15 19 8 10 1020.1 1019.3 0.0
17/11:00pm 7.1 3.3 4.1 81 1.3 S 13 17 7 9 1020.1 1019.3 0.0
17/10:30pm 7.1 3.0 4.2 82 1.3 SSW 15 20 8 11 1020.5 1019.6 0.0
17/10:00pm 7.4 4.0 4.0 79 1.5 S 11 17 6 9 1020.1 1019.3 0.0
17/09:30pm 7.7 4.0 4.3 79 1.5 SSW 13 17 7 9 1020.6 1019.7 0.0
17/09:00pm 8.0 3.9 4.4 78 1.6 SSW 15 22 8 12 1020.7 1019.8 0.0
17/08:30pm 8.5 4.4 4.3 75 1.9 SSW 15 22 8 12 1020.7 1019.8 0.0
17/08:00pm 9.5 4.6 4.3 70 2.4 S 19 26 10 14 1020.7 1019.8 0.0
17/07:30pm 10.7 4.9 4.4 65 2.9 S 24 32 13 17 1020.7 1019.8 0.0
17/07:00pm 11.4 6.4 4.4 62 3.2 S 20 28 11 15 1020.2 1019.4 0.0
17/06:30pm 12.7 7.9 4.9 59 3.7 S 19 28 10 15 1020.0 1019.1 0.0
17/06:00pm 12.5 7.1 4.7 59 3.7 S 22 32 12 17 1019.6 1018.7 0.0
17/05:30pm 13.6 9.3 5.3 57 4.0 S 17 26 9 14 1019.9 1019.0 0.0
17/05:00pm 13.9 8.9 4.8 54 4.3 S 20 30 11 16 1019.8 1018.9 0.0
17/04:30pm 13.1 8.5 3.7 53 4.4 S 17 26 9 14 1019.6 1018.7 0.0
17/04:00pm 13.4 8.7 5.3 58 3.9 S 19 28 10 15 1019.6 1018.7 0.0
17/03:30pm 13.2 8.0 3.8 53 4.4 SSW 20 30 11 16 1020.1 1019.3 0.0
17/03:00pm 12.5 7.0 4.2 57 3.9 S 22 39 12 21 1020.3 1019.5 0.0
17/02:30pm 13.2 7.6 5.6 60 3.7 S 24 35 13 19 1020.2 1019.4 0.0
17/02:00pm 12.5 6.9 5.4 62 3.4 S 24 35 13 19 1020.7 1019.8 0.0
17/01:30pm 12.5 7.9 6.3 66 3.0 S 20 32 11 17 1021.1 1020.2 0.0
17/01:00pm 12.2 6.5 6.7 69 2.7 S 26 37 14 20 1021.0 1020.1 0.0
17/12:30pm 10.9 5.6 5.0 67 2.8 SSW 22 35 12 19 1021.3 1020.4 0.0
17/12:00pm 10.6 5.3 5.2 69 2.5 S 22 37 12 20 1021.3 1020.4 0.0
17/11:30am 11.2 6.0 5.7 69 2.6 SSW 22 32 12 17 1021.1 1020.2 0.0
17/11:00am 11.8 5.8 5.2 64 3.1 S 26 37 14 20 1020.9 1020.0 0.0
17/10:30am 10.7 4.8 5.7 71 2.4 S 26 37 14 20 1021.0 1020.1 0.0
17/10:00am 10.3 4.7 5.5 72 2.3 SSW 24 37 13 20 1020.9 1020.0 0.0
17/09:31am 9.4 3.0 5.0 74 2.0 S 28 46 15 25 1020.8 1019.9 0.0
17/09:30am 9.3 2.4 4.7 73 2.1 S 30 46 16 25 1020.8 1019.9 0.0
17/09:00am 9.6 3.7 5.8 77 1.8 S 26 37 14 20 1020.5 1019.6 0.0
17/08:30am 9.0 3.8 5.6 79 1.6 SSW 22 41 12 22 1020.3 1019.5 0.0
17/08:00am 7.6 3.2 6.5 93 0.5 SSW 19 30 10 16 1020.0 1019.1 0.0
17/07:30am 6.8 2.2 6.7 99 0.0 SSW 20 30 11 16 1019.8 1018.9 0.0
17/07:00am 6.4 1.8 6.3 99 0.0 SSW 20 30 11 16 1019.4 1018.5 0.0
17/06:30am 6.3 1.6 6.2 99 0.0 SSW 20 32 11 17 1019.0 1018.1 0.0
17/06:00am 6.1 1.0 6.0 99 0.0 SSW 22 32 12 17 1018.8 1017.9 0.0
17/05:30am 6.1 0.6 6.0 99 0.0 SSW 24 35 13 19 1018.3 1017.4 0.0
17/05:00am 5.8 0.3 5.7 99 0.0 SSW 24 35 13 19 1018.3 1017.4 0.0
17/04:30am 5.6 0.0 5.5 99 0.0 SW 24 30 13 16 1018.2 1017.3 0.0
17/04:00am 5.8 0.6 5.7 99 0.0 SSW 22 28 12 15 1018.3 1017.4 0.0
17/03:30am 5.8 0.6 5.5 98 0.1 SSW 22 28 12 15 1018.2 1017.3 0.0
17/03:00am 5.8 1.5 5.2 96 0.3 SSW 17 26 9 14 1018.3 1017.4 0.0
17/02:30am 6.3 1.5 5.4 94 0.4 SSW 20 24 11 13 1018.6 1017.7 0.0
17/02:00am 6.6 2.7 5.2 91 0.6 SSW 15 24 8 13 1018.9 1018.0 0.0
17/01:30am 7.1 2.8 5.3 88 0.8 SSW 17 24 9 13 1019.3 1018.4 0.0
17/01:00am 7.3 2.4 5.1 86 1.0 SSW 20 28 11 15 1019.5 1018.6 0.0
17/12:30am 7.6 2.3 5.1 84 1.1 SSW 22 37 12 20 1019.6 1018.7 0.0
17/12:00am 7.6 2.9 5.1 84 1.1 SSW 19 30 10 16 1019.5 1018.6 0.0
 
Date/Time
EDT
Temp
°C
App
Temp
°C
Dew
Point
°C
Rel
Hum
%
Delta-T
°C
Wind Press
QNH
hPa
Press
MSL
hPa
Rain since
9am
mm
Dir  Spd
km/h
Gust
km/h
Spd
kts
Gust
kts
16/11:30pm 7.5 3.1 5.0 84 1.1 SSW 17 24 9 13 1019.5 1018.6 0.0
16/11:00pm 7.8 3.5 5.3 84 1.1 S 17 24 9 13 1019.4 1018.5 0.0
16/10:30pm 8.3 4.5 5.6 83 1.3 SSW 15 22 8 12 1019.6 1018.7 0.0
16/10:00pm 8.5 3.7 5.4 81 1.4 SSW 20 32 11 17 1019.7 1018.8 0.0
16/09:30pm 8.9 4.2 5.3 78 1.7 SSW 19 30 10 16 1019.6 1018.7 0.0
16/09:00pm 9.3 4.6 5.3 76 1.9 SSW 19 30 10 16 1019.3 1018.4 0.0
16/08:30pm 9.3 6.2 5.5 77 1.8 S 11 15 6 8 1018.8 1017.9 0.0
16/08:00pm 9.9 5.1 4.7 70 2.4 S 19 28 10 15 1018.3 1017.4 0.0
16/07:30pm 10.5 5.5 3.8 63 3.0 SSW 19 30 10 16 1018.2 1017.3 0.0
16/07:00pm 11.0 5.9 4.2 63 3.1 SSW 20 30 11 16 1018.2 1017.3 0.0
16/06:30pm 11.7 7.3 4.7 62 3.3 SSW 17 26 9 14 1017.7 1016.8 0.0
16/06:00pm 11.7 6.6 4.2 60 3.5 SSW 20 32 11 17 1017.9 1017.0 0.0
16/05:30pm 12.6 7.1 4.1 56 4.0 SSW 22 33 12 18 1017.9 1017.0 0.0
16/05:00pm 13.4 8.5 4.0 53 4.4 SSW 19 30 10 16 1018.1 1017.2 0.0
16/04:30pm 14.0 8.7 4.9 54 4.4 SSW 22 35 12 19 1018.5 1017.5 0.0
16/04:00pm 14.5 9.5 4.5 51 4.8 SW 20 32 11 17 1018.3 1017.4 0.0
16/03:30pm 14.7 10.1 3.5 47 5.2 S 17 32 9 17 1018.3 1017.4 0.0
16/03:00pm 14.4 9.2 3.8 49 5.0 SW 20 35 11 19 1018.2 1017.3 0.0
16/02:30pm 15.0 11.0 2.9 44 5.6 SSW 13 28 7 15 1018.2 1017.3 0.0
16/02:00pm 14.5 9.7 4.5 51 4.8 SW 19 30 10 16 1018.1 1017.2 0.0
16/01:30pm 13.8 8.8 3.6 50 4.7 SSW 19 33 10 18 1018.1 1017.2 0.0
16/01:00pm 14.2 9.3 4.2 51 4.7 SSW 19 30 10 16 1018.3 1017.4 0.0
16/12:30pm 12.9 7.6 3.0 51 4.5 S 20 35 11 19 1018.5 1017.5 0.0
16/12:00pm 12.1 7.3 2.8 53 4.2 SSW 17 32 9 17 1018.8 1017.9 0.0
16/11:30am 11.2 6.7 4.2 62 3.2 SSW 17 30 9 16 1019.0 1018.1 0.0
16/11:00am 11.3 6.8 4.1 61 3.3 SSW 17 30 9 16 1018.9 1018.0 0.0
16/10:30am 10.4 5.9 4.3 66 2.8 SSW 17 26 9 14 1018.8 1017.9 0.0
16/10:00am 10.1 5.1 4.7 69 2.5 S 20 32 11 17 1018.6 1017.7 0.0
16/09:30am 9.6 4.2 4.4 70 2.4 S 22 32 12 17 1018.3 1017.4 0.0
16/09:00am 8.5 3.3 3.4 70 2.3 SSW 20 33 11 18 1018.2 1017.3 0.8
16/08:30am 7.9 3.5 5.0 82 1.3 SSW 17 24 9 13 1017.9 1017.0 0.8
16/08:00am 6.7 1.8 5.2 90 0.7 SSW 20 30 11 16 1017.5 1016.6 0.8
16/07:30am 5.9 1.0 5.3 96 0.3 SW 20 28 11 15 1017.3 1016.4 0.8
16/07:00am 5.3 0.4 5.2 99 0.0 SW 20 28 11 15 1017.0 1016.1 0.8
16/06:30am 4.9 0.1 4.8 99 0.0 SSW 19 26 10 14 1016.8 1015.8 0.8
16/06:00am 4.9 -0.1 4.8 99 0.0 SW 20 30 11 16 1016.7 1015.7 0.8
16/05:30am 5.0 0.0 4.7 98 0.1 SW 20 24 11 13 1016.2 1015.3 0.8
16/05:00am 4.9 0.1 4.6 98 0.1 SW 19 24 10 13 1016.2 1015.3 0.8
16/04:30am 5.3 0.0 5.0 98 0.1 SW 22 28 12 15 1016.2 1015.3 0.8
16/04:00am 5.2 0.5 5.1 99 0.0 SW 19 24 10 13 1016.2 1015.3 0.8
16/03:30am 5.3 1.0 5.2 99 0.0 SW 17 24 9 13 1016.2 1015.3 0.8
16/03:00am 5.8 1.0 5.4 97 0.2 SW 20 32 11 17 1016.5 1015.5 0.8
16/02:30am 6.0 0.8 5.4 96 0.3 SW 22 30 12 16 1016.7 1015.7 0.8
16/02:00am 6.0 1.4 5.6 97 0.2 SW 19 24 10 13 1016.8 1015.8 0.8
16/01:30am 6.6 2.0 5.6 93 0.5 SW 19 28 10 15 1016.8 1015.8 0.8
16/01:00am 6.8 2.2 5.7 93 0.5 SW 19 26 10 14 1016.9 1016.0 0.8
16/12:30am 6.5 2.3 5.5 93 0.5 SW 17 22 9 12 1016.9 1016.0 0.8
16/12:00am 6.8 2.5 5.3 90 0.7 SSW 17 24 9 13 1016.8 1015.8 0.8
 
Date/Time
EDT
Temp
°C
App
Temp
°C
Dew
Point
°C
Rel
Hum
%
Delta-T
°C
Wind Press
QNH
hPa
Press
MSL
hPa
Rain since
9am
mm
Dir  Spd
km/h
Gust
km/h
Spd
kts
Gust
kts
15/11:30pm 7.1 1.9 5.6 90 0.7 SSW 22 32 12 17 1016.7 1015.7 0.8
15/11:00pm 7.4 1.9 5.9 90 0.7 SSW 24 37 13 20 1016.6 1015.6 0.8
15/10:30pm 7.8 2.6 7.1 95 0.3 SW 24 39 13 21 1016.7 1015.7 0.8
15/10:00pm 8.6 3.5 6.1 84 1.2 SSW 22 33 12 18 1016.2 1015.3 0.8
15/09:30pm 8.9 4.7 5.5 79 1.6 SSW 17 28 9 15 1015.8 1014.9 0.8
15/09:00pm 9.4 4.8 5.4 76 1.9 SSW 19 30 10 16 1015.4 1014.5 0.8
15/08:30pm 10.2 5.5 6.0 75 2.0 SSW 20 33 11 18 1015.0 1014.0 0.8
15/08:00pm 10.9 6.9 6.6 75 2.1 SSW 17 26 9 14 1014.5 1013.5 0.8
15/07:30pm 10.9 7.4 7.2 78 1.8 SSW 15 20 8 11 1013.9 1013.0 0.8
15/07:00pm 11.4 8.2 8.3 81 1.6 SSW 15 24 8 13 1013.6 1012.7 0.8
15/06:30pm 11.9 8.7 10.1 89 0.9 SW 17 24 9 13 1012.9 1011.9 0.6
15/06:00pm 11.5 9.2 10.6 94 0.5 WSW 13 19 7 10 1012.8 1011.8 0.4
15/05:52pm 11.7 10.4 11.1 96 0.3 WSW 9 13 5 7 1012.6 1011.6 0.4
15/05:40pm 11.9 9.7 10.8 93 0.6 SW 13 17 7 9 1012.7 1011.7 0.4
15/05:30pm 12.0 9.6 10.1 88 1.0 W 13 17 7 9 1012.5 1011.5 0.2
15/05:18pm 12.1 9.7 10.0 87 1.1 WNW 13 17 7 9 1012.2 1011.3 0.0
15/05:04pm 12.3 8.5 9.7 84 1.4 W 20 30 11 16 1012.2 1011.3 0.0
15/05:00pm 12.6 8.7 9.4 81 1.7 WSW 20 28 11 15 1012.1 1011.2 0.0
15/04:30pm 14.1 9.7 7.2 63 3.5 SW 20 28 11 15 1011.8 1010.8 0.0
15/04:00pm 15.0 9.7 6.6 57 4.2 W 24 37 13 20 1011.5 1010.5 0.0

Other formats

Comma delimited format used in spreadsheet applications
http://www.bom.gov.au/fwo/IDV60801/IDV60801.94860.axf

JavaScript Object Notation format (JSON) in row-major order
http://www.bom.gov.au/fwo/IDV60801/IDV60801.94860.json

Data quality

Most of these data are generated automatically and are frequently updated. Quality checks on data are not normally performed. It is possible for incorrect values to appear. Refer to information at About Latest Weather Observations and please check the disclaimer before using these data.